sensor_id;sensor_type;location;lat;lon;timestamp;pressure;altitude;pressure_sealevel;temperature;humidity
73103;BME280;61294;65.988;29.172;2023-03-01T00:02:23;97804.28;;;-6.68;100.00
73103;BME280;61294;65.988;29.172;2023-03-01T00:04:49;97782.16;;;-6.84;100.00
73103;BME280;61294;65.988;29.172;2023-03-01T00:07:14;97792.09;;;-6.74;100.00
73103;BME280;61294;65.988;29.172;2023-03-01T00:09:40;97787.91;;;-6.72;100.00
73103;BME280;61294;65.988;29.172;2023-03-01T00:12:06;97808.19;;;-6.59;100.00
73103;BME280;61294;65.988;29.172;2023-03-01T00:14:32;97823.63;;;-6.57;100.00
73103;BME280;61294;65.988;29.172;2023-03-01T00:16:58;97817.69;;;-6.56;100.00
73103;BME280;61294;65.988;29.172;2023-03-01T00:19:23;97805.47;;;-6.62;100.00
73103;BME280;61294;65.988;29.172;2023-03-01T00:21:49;97803.94;;;-6.58;100.00
73103;BME280;61294;65.988;29.172;2023-03-01T00:24:15;97820.25;;;-6.56;100.00
73103;BME280;61294;65.988;29.172;2023-03-01T00:26:41;97812.44;;;-6.59;100.00
73103;BME280;61294;65.988;29.172;2023-03-01T00:29:06;97809.72;;;-6.62;100.00
73103;BME280;61294;65.988;29.172;2023-03-01T00:31:33;97796.59;;;-6.68;100.00
73103;BME280;61294;65.988;29.172;2023-03-01T00:34:01;97793.66;;;-6.76;100.00
73103;BME280;61294;65.988;29.172;2023-03-01T00:36:31;97756.84;;;-6.96;100.00
73103;BME280;61294;65.988;29.172;2023-03-01T00:38:57;97786.19;;;-6.89;100.00
73103;BME280;61294;65.988;29.172;2023-03-01T00:41:23;97794.03;;;-6.86;100.00
73103;BME280;61294;65.988;29.172;2023-03-01T00:43:50;97788.44;;;-6.96;100.00
73103;BME280;61294;65.988;29.172;2023-03-01T00:46:18;97804.84;;;-6.92;100.00
73103;BME280;61294;65.988;29.172;2023-03-01T00:48:45;97808.78;;;-6.99;100.00
73103;BME280;61294;65.988;29.172;2023-03-01T00:51:19;97804.16;;;-7.06;100.00
73103;BME280;61294;65.988;29.172;2023-03-01T00:53:46;97789.34;;;-7.12;100.00
73103;BME280;61294;65.988;29.172;2023-03-01T00:56:14;97800.72;;;-7.06;100.00
73103;BME280;61294;65.988;29.172;2023-03-01T00:58:40;97803.50;;;-7.02;100.00
73103;BME280;61294;65.988;29.172;2023-03-01T01:01:18;97798.22;;;-7.05;100.00
73103;BME280;61294;65.988;29.172;2023-03-01T01:03:49;97804.63;;;-6.97;100.00
73103;BME280;61294;65.988;29.172;2023-03-01T01:06:27;97802.13;;;-6.95;100.00
73103;BME280;61294;65.988;29.172;2023-03-01T01:08:55;97804.63;;;-6.97;100.00
73103;BME280;61294;65.988;29.172;2023-03-01T01:11:22;97808.91;;;-6.96;100.00
73103;BME280;61294;65.988;29.172;2023-03-01T01:13:49;97793.41;;;-6.99;100.00
73103;BME280;61294;65.988;29.172;2023-03-01T01:16:15;97822.63;;;-6.95;100.00
73103;BME280;61294;65.988;29.172;2023-03-01T01:18:41;97814.28;;;-6.91;100.00
73103;BME280;61294;65.988;29.172;2023-03-01T01:21:12;97814.38;;;-6.89;100.00
73103;BME280;61294;65.988;29.172;2023-03-01T01:23:39;97794.13;;;-7.01;100.00
73103;BME280;61294;65.988;29.172;2023-03-01T01:26:11;97815.31;;;-6.87;100.00
73103;BME280;61294;65.988;29.172;2023-03-01T01:28:37;97825.69;;;-6.84;100.00
73103;BME280;61294;65.988;29.172;2023-03-01T01:31:04;97804.19;;;-6.88;100.00
73103;BME280;61294;65.988;29.172;2023-03-01T01:33:30;97813.63;;;-6.87;100.00
73103;BME280;61294;65.988;29.172;2023-03-01T01:35:56;97809.25;;;-6.89;100.00
73103;BME280;61294;65.988;29.172;2023-03-01T01:38:22;97766.31;;;-7.12;100.00
73103;BME280;61294;65.988;29.172;2023-03-01T01:40:49;97816.28;;;-6.85;100.00
73103;BME280;61294;65.988;29.172;2023-03-01T01:45:49;97808.59;;;-6.85;100.00
73103;BME280;61294;65.988;29.172;2023-03-01T01:48:20;97810.19;;;-6.87;100.00
73103;BME280;61294;65.988;29.172;2023-03-01T01:50:55;97804.84;;;-6.92;100.00
73103;BME280;61294;65.988;29.172;2023-03-01T01:53:22;97786.53;;;-7.00;100.00
73103;BME280;61294;65.988;29.172;2023-03-01T01:55:54;97820.44;;;-6.87;100.00
73103;BME280;61294;65.988;29.172;2023-03-01T01:58:25;97776.84;;;-7.05;100.00
73103;BME280;61294;65.988;29.172;2023-03-01T02:00:54;97804.69;;;-6.95;100.00
73103;BME280;61294;65.988;29.172;2023-03-01T02:03:31;97810.03;;;-6.90;100.00
73103;BME280;61294;65.988;29.172;2023-03-01T02:08:47;97778.78;;;-7.01;99.54
73103;BME280;61294;65.988;29.172;2023-03-01T02:11:14;97799.06;;;-6.88;99.59
73103;BME280;61294;65.988;29.172;2023-03-01T02:13:41;97747.53;;;-7.12;99.18
73103;BME280;61294;65.988;29.172;2023-03-01T02:16:13;97814.66;;;-6.83;98.65
73103;BME280;61294;65.988;29.172;2023-03-01T02:18:41;97800.34;;;-6.80;98.58
73103;BME280;61294;65.988;29.172;2023-03-01T02:21:32;97799.78;;;-6.74;97.79
73103;BME280;61294;65.988;29.172;2023-03-01T02:24:15;97770.91;;;-6.88;96.91
73103;BME280;61294;65.988;29.172;2023-03-01T02:26:48;97806.47;;;-6.76;96.74
73103;BME280;61294;65.988;29.172;2023-03-01T02:29:15;97770.91;;;-6.88;96.56
73103;BME280;61294;65.988;29.172;2023-03-01T02:31:41;97786.78;;;-6.77;96.35
73103;BME280;61294;65.988;29.172;2023-03-01T02:34:16;97794.03;;;-6.68;95.80
73103;BME280;61294;65.988;29.172;2023-03-01T02:36:47;97789.75;;;-6.69;95.30
73103;BME280;61294;65.988;29.172;2023-03-01T02:39:19;97761.03;;;-6.98;95.44
73103;BME280;61294;65.988;29.172;2023-03-01T02:41:50;97724.00;;;-7.05;95.05
73103;BME280;61294;65.988;29.172;2023-03-01T02:44:17;97773.97;;;-6.77;94.47
73103;BME280;61294;65.988;29.172;2023-03-01T02:46:52;97769.44;;;-6.83;95.55
73103;BME280;61294;65.988;29.172;2023-03-01T02:49:29;97775.81;;;-6.74;95.17
73103;BME280;61294;65.988;29.172;2023-03-01T02:52:40;97743.09;;;-6.98;95.24
73103;BME280;61294;65.988;29.172;2023-03-01T02:55:11;97752.00;;;-6.90;95.32
73103;BME280;61294;65.988;29.172;2023-03-01T02:57:40;97771.41;;;-6.77;95.45
73103;BME280;61294;65.988;29.172;2023-03-01T03:00:09;97750.28;;;-6.91;95.48
73103;BME280;61294;65.988;29.172;2023-03-01T03:02:49;97760.03;;;-6.84;95.49
73103;BME280;61294;65.988;29.172;2023-03-01T03:05:18;97743.31;;;-6.94;95.85
73103;BME280;61294;65.988;29.172;2023-03-01T03:07:45;97770.84;;;-6.71;96.22
73103;BME280;61294;65.988;29.172;2023-03-01T03:10:17;97779.09;;;-6.77;96.86
73103;BME280;61294;65.988;29.172;2023-03-01T03:12:49;97777.38;;;-6.78;96.99
73103;BME280;61294;65.988;29.172;2023-03-01T03:15:15;97788.84;;;-6.70;97.01
73103;BME280;61294;65.988;29.172;2023-03-01T03:17:42;97789.81;;;-6.68;96.68
73103;BME280;61294;65.988;29.172;2023-03-01T03:20:11;97783.00;;;-6.67;96.53
73103;BME280;61294;65.988;29.172;2023-03-01T03:22:42;97786.53;;;-6.65;96.84
73103;BME280;61294;65.988;29.172;2023-03-01T03:25:08;97786.47;;;-6.67;96.90
73103;BME280;61294;65.988;29.172;2023-03-01T03:27:37;97764.56;;;-6.78;97.54
73103;BME280;61294;65.988;29.172;2023-03-01T03:30:04;97779.72;;;-6.65;97.45
73103;BME280;61294;65.988;29.172;2023-03-01T03:32:35;97794.03;;;-6.68;97.68
73103;BME280;61294;65.988;29.172;2023-03-01T03:35:03;97782.84;;;-6.70;98.42
73103;BME280;61294;65.988;29.172;2023-03-01T03:37:43;97767.13;;;-6.78;98.87
73103;BME280;61294;65.988;29.172;2023-03-01T03:40:47;97762.06;;;-6.77;99.44
73103;BME280;61294;65.988;29.172;2023-03-01T03:43:15;97777.50;;;-6.75;99.81
73103;BME280;61294;65.988;29.172;2023-03-01T03:45:44;97768.06;;;-6.76;100.00
73103;BME280;61294;65.988;29.172;2023-03-01T03:48:10;97769.81;;;-6.75;100.00
73103;BME280;61294;65.988;29.172;2023-03-01T03:50:37;97722.44;;;-7.01;100.00
73103;BME280;61294;65.988;29.172;2023-03-01T03:53:09;97769.63;;;-6.80;100.00
73103;BME280;61294;65.988;29.172;2023-03-01T03:55:35;97714.19;;;-7.14;100.00
73103;BME280;61294;65.988;29.172;2023-03-01T03:58:06;97742.13;;;-7.00;100.00
73103;BME280;61294;65.988;29.172;2023-03-01T04:00:37;97758.81;;;-6.90;100.00
73103;BME280;61294;65.988;29.172;2023-03-01T04:03:04;97766.00;;;-6.83;100.00
73103;BME280;61294;65.988;29.172;2023-03-01T04:05:31;97750.53;;;-7.03;100.00
73103;BME280;61294;65.988;29.172;2023-03-01T04:07:57;97776.75;;;-6.90;100.00
73103;BME280;61294;65.988;29.172;2023-03-01T04:10:31;97768.13;;;-6.92;100.00
73103;BME280;61294;65.988;29.172;2023-03-01T04:12:58;97779.38;;;-6.89;100.00
73103;BME280;61294;65.988;29.172;2023-03-01T04:15:26;97757.72;;;-6.96;100.00
73103;BME280;61294;65.988;29.172;2023-03-01T04:17:53;97773.47;;;-6.88;100.00
73103;BME280;61294;65.988;29.172;2023-03-01T04:20:29;97729.53;;;-7.14;100.00
73103;BME280;61294;65.988;29.172;2023-03-01T04:23:11;97742.13;;;-7.00;100.00
73103;BME280;61294;65.988;29.172;2023-03-01T04:25:50;97756.13;;;-6.94;100.00
73103;BME280;61294;65.988;29.172;2023-03-01T04:28:24;97776.09;;;-6.86;100.00
73103;BME280;61294;65.988;29.172;2023-03-01T04:30:53;97767.53;;;-6.87;100.00
73103;BME280;61294;65.988;29.172;2023-03-01T04:33:20;97746.47;;;-6.99;100.00
73103;BME280;61294;65.988;29.172;2023-03-01T04:35:47;97762.25;;;-6.90;100.00
73103;BME280;61294;65.988;29.172;2023-03-01T04:38:19;97768.19;;;-6.91;100.00
73103;BME280;61294;65.988;29.172;2023-03-01T04:40:47;97770.75;;;-6.91;100.00
73103;BME280;61294;65.988;29.172;2023-03-01T04:43:13;97784.28;;;-6.94;100.00
73103;BME280;61294;65.988;29.172;2023-03-01T04:45:40;97779.09;;;-6.95;100.00
73103;BME280;61294;65.988;29.172;2023-03-01T04:48:07;97771.16;;;-7.00;100.00
73103;BME280;61294;65.988;29.172;2023-03-01T04:50:35;97762.63;;;-7.00;100.00
73103;BME280;61294;65.988;29.172;2023-03-01T04:53:01;97737.16;;;-7.15;100.00
73103;BME280;61294;65.988;29.172;2023-03-01T04:55:28;97775.41;;;-7.00;100.00
73103;BME280;61294;65.988;29.172;2023-03-01T04:57:55;97770.44;;;-6.97;100.00
73103;BME280;61294;65.988;29.172;2023-03-01T05:00:23;97753.34;;;-6.98;100.00
73103;BME280;61294;65.988;29.172;2023-03-01T05:02:54;97751.66;;;-6.98;100.00
73103;BME280;61294;65.988;29.172;2023-03-01T05:05:24;97736.25;;;-7.16;100.00
73103;BME280;61294;65.988;29.172;2023-03-01T05:07:53;97748.13;;;-7.00;100.00
73103;BME280;61294;65.988;29.172;2023-03-01T05:10:19;97750.47;;;-7.04;100.00
73103;BME280;61294;65.988;29.172;2023-03-01T05:12:46;97730.69;;;-7.25;100.00
73103;BME280;61294;65.988;29.172;2023-03-01T05:15:12;97752.94;;;-7.06;100.00
73103;BME280;61294;65.988;29.172;2023-03-01T05:17:39;97747.81;;;-7.06;100.00
73103;BME280;61294;65.988;29.172;2023-03-01T05:20:06;97712.53;;;-7.30;100.00
73103;BME280;61294;65.988;29.172;2023-03-01T05:22:35;97748.88;;;-7.02;100.00
73103;BME280;61294;65.988;29.172;2023-03-01T05:25:03;97716.50;;;-7.18;100.00
73103;BME280;61294;65.988;29.172;2023-03-01T05:27:30;97757.56;;;-6.99;100.00
73103;BME280;61294;65.988;29.172;2023-03-01T05:29:56;97723.53;;;-7.14;100.00
73103;BME280;61294;65.988;29.172;2023-03-01T05:32:23;97715.69;;;-7.17;100.00
73103;BME280;61294;65.988;29.172;2023-03-01T05:34:50;97739.50;;;-7.02;100.00
73103;BME280;61294;65.988;29.172;2023-03-01T05:37:18;97758.34;;;-7.00;100.00
73103;BME280;61294;65.988;29.172;2023-03-01T05:39:45;97727.19;;;-7.09;100.00
73103;BME280;61294;65.988;29.172;2023-03-01T05:42:12;97754.28;;;-6.96;100.00
73103;BME280;61294;65.988;29.172;2023-03-01T05:44:38;97770.84;;;-6.89;100.00
73103;BME280;61294;65.988;29.172;2023-03-01T05:47:05;97756.28;;;-6.90;100.00
73103;BME280;61294;65.988;29.172;2023-03-01T05:49:32;97770.00;;;-6.88;100.00
73103;BME280;61294;65.988;29.172;2023-03-01T05:51:58;97761.53;;;-6.87;100.00
73103;BME280;61294;65.988;29.172;2023-03-01T05:54:24;97694.28;;;-7.19;100.00
73103;BME280;61294;65.988;29.172;2023-03-01T05:56:51;97759.13;;;-6.84;100.00
73103;BME280;61294;65.988;29.172;2023-03-01T05:59:18;97742.34;;;-6.96;100.00
73103;BME280;61294;65.988;29.172;2023-03-01T06:01:44;97763.59;;;-6.80;100.00
73103;BME280;61294;65.988;29.172;2023-03-01T06:04:14;97710.06;;;-7.10;100.00
73103;BME280;61294;65.988;29.172;2023-03-01T06:06:43;97743.53;;;-6.89;100.00
73103;BME280;61294;65.988;29.172;2023-03-01T06:09:09;97787.75;;;-6.75;100.00
73103;BME280;61294;65.988;29.172;2023-03-01T06:11:36;97788.84;;;-6.70;100.00
73103;BME280;61294;65.988;29.172;2023-03-01T06:14:02;97766.16;;;-6.80;100.00
73103;BME280;61294;65.988;29.172;2023-03-01T06:16:28;97766.72;;;-6.86;100.00
73103;BME280;61294;65.988;29.172;2023-03-01T06:18:54;97775.97;;;-6.71;100.00
73103;BME280;61294;65.988;29.172;2023-03-01T06:21:19;97772.25;;;-6.78;100.00
73103;BME280;61294;65.988;29.172;2023-03-01T06:23:45;97801.81;;;-6.67;100.00
73103;BME280;61294;65.988;29.172;2023-03-01T06:26:11;97777.28;;;-6.80;100.00
73103;BME280;61294;65.988;29.172;2023-03-01T06:28:37;97788.13;;;-6.67;100.00
73103;BME280;61294;65.988;29.172;2023-03-01T06:31:02;97787.84;;;-6.73;100.00
73103;BME280;61294;65.988;29.172;2023-03-01T06:33:28;97801.31;;;-6.60;100.00
73103;BME280;61294;65.988;29.172;2023-03-01T06:35:55;97801.31;;;-6.60;100.00
73103;BME280;61294;65.988;29.172;2023-03-01T06:38:23;97771.41;;;-6.77;100.00
73103;BME280;61294;65.988;29.172;2023-03-01T06:40:55;97815.22;;;-6.54;100.00
73103;BME280;61294;65.988;29.172;2023-03-01T06:43:22;97805.09;;;-6.51;100.00
73103;BME280;61294;65.988;29.172;2023-03-01T06:45:49;97806.00;;;-6.51;100.00
73103;BME280;61294;65.988;29.172;2023-03-01T06:48:15;97808.78;;;-6.46;100.00
73103;BME280;61294;65.988;29.172;2023-03-01T06:50:40;97770.41;;;-6.63;100.00
73103;BME280;61294;65.988;29.172;2023-03-01T06:53:06;97807.34;;;-6.41;100.00
73103;BME280;61294;65.988;29.172;2023-03-01T06:55:32;97809.97;;;-6.39;100.00
73103;BME280;61294;65.988;29.172;2023-03-01T06:57:59;97796.31;;;-6.38;100.00
73103;BME280;61294;65.988;29.172;2023-03-01T07:00:26;97771.72;;;-6.53;100.00
73103;BME280;61294;65.988;29.172;2023-03-01T07:02:52;97766.38;;;-6.57;100.00
73103;BME280;61294;65.988;29.172;2023-03-01T07:05:18;97804.31;;;-6.32;100.00
73103;BME280;61294;65.988;29.172;2023-03-01T07:07:44;97806.16;;;-6.30;100.00
73103;BME280;61294;65.988;29.172;2023-03-01T07:10:10;97796.78;;;-6.29;100.00
73103;BME280;61294;65.988;29.172;2023-03-01T07:12:36;97764.63;;;-6.40;100.00
73103;BME280;61294;65.988;29.172;2023-03-01T07:15:03;97754.75;;;-6.51;100.00
73103;BME280;61294;65.988;29.172;2023-03-01T07:17:29;97782.13;;;-6.32;100.00
73103;BME280;61294;65.988;29.172;2023-03-01T07:19:56;97805.53;;;-6.06;100.00
73103;BME280;61294;65.988;29.172;2023-03-01T07:22:22;97779.34;;;-6.18;100.00
73103;BME280;61294;65.988;29.172;2023-03-01T07:24:47;97811.03;;;-5.98;100.00
73103;BME280;61294;65.988;29.172;2023-03-01T07:27:13;97809.66;;;-5.90;100.00
73103;BME280;61294;65.988;29.172;2023-03-01T07:29:39;97758.31;;;-6.11;100.00
73103;BME280;61294;65.988;29.172;2023-03-01T07:32:06;97793.34;;;-5.92;100.00
73103;BME280;61294;65.988;29.172;2023-03-01T07:34:32;97816.22;;;-5.77;100.00
73103;BME280;61294;65.988;29.172;2023-03-01T07:36:58;97792.66;;;-5.88;100.00
73103;BME280;61294;65.988;29.172;2023-03-01T07:39:24;97828.63;;;-5.68;100.00
73103;BME280;61294;65.988;29.172;2023-03-01T07:41:50;97796.94;;;-5.69;100.00
73103;BME280;61294;65.988;29.172;2023-03-01T07:44:16;97823.63;;;-5.65;100.00
73103;BME280;61294;65.988;29.172;2023-03-01T07:46:43;97780.13;;;-5.82;100.00
73103;BME280;61294;65.988;29.172;2023-03-01T07:49:10;97823.75;;;-5.62;100.00
73103;BME280;61294;65.988;29.172;2023-03-01T07:51:35;97824.75;;;-5.59;100.00
73103;BME280;61294;65.988;29.172;2023-03-01T07:54:01;97812.63;;;-5.63;100.00
73103;BME280;61294;65.988;29.172;2023-03-01T07:56:27;97829.53;;;-5.48;100.00
73103;BME280;61294;65.988;29.172;2023-03-01T07:58:53;97819.94;;;-5.52;100.00
73103;BME280;61294;65.988;29.172;2023-03-01T08:01:20;97840.66;;;-5.48;100.00
73103;BME280;61294;65.988;29.172;2023-03-01T08:03:46;97830.59;;;-5.43;99.75
73103;BME280;61294;65.988;29.172;2023-03-01T08:06:14;97818.81;;;-5.58;99.57
73103;BME280;61294;65.988;29.172;2023-03-01T08:08:40;97855.88;;;-5.33;99.80
73103;BME280;61294;65.988;29.172;2023-03-01T08:11:07;97811.16;;;-5.38;99.56
73103;BME280;61294;65.988;29.172;2023-03-01T08:13:35;97806.81;;;-5.39;98.80
73103;BME280;61294;65.988;29.172;2023-03-01T08:16:06;97838.84;;;-5.11;98.41
73103;BME280;61294;65.988;29.172;2023-03-01T08:18:32;97788.72;;;-5.23;97.84
73103;BME280;61294;65.988;29.172;2023-03-01T08:21:03;97790.13;;;-5.10;97.28
73103;BME280;61294;65.988;29.172;2023-03-01T08:23:28;97816.19;;;-5.00;96.74
73103;BME280;61294;65.988;29.172;2023-03-01T08:25:55;97847.69;;;-4.85;96.48
73103;BME280;61294;65.988;29.172;2023-03-01T08:28:28;97851.03;;;-4.86;96.49
73103;BME280;61294;65.988;29.172;2023-03-01T08:30:54;97842.63;;;-4.62;95.75
73103;BME280;61294;65.988;29.172;2023-03-01T08:33:19;97852.00;;;-3.09;93.35
73103;BME280;61294;65.988;29.172;2023-03-01T08:35:45;97818.00;;;-1.06;79.53
73103;BME280;61294;65.988;29.172;2023-03-01T08:38:11;97819.03;;;-1.89;78.42
73103;BME280;61294;65.988;29.172;2023-03-01T08:40:36;97850.50;;;-3.02;82.73
73103;BME280;61294;65.988;29.172;2023-03-01T08:43:02;97865.69;;;-3.57;84.71
73103;BME280;61294;65.988;29.172;2023-03-01T08:45:28;97867.97;;;-3.65;86.70
73103;BME280;61294;65.988;29.172;2023-03-01T08:47:54;97874.00;;;-3.64;87.37
73103;BME280;61294;65.988;29.172;2023-03-01T08:50:20;97842.63;;;-3.76;87.52
73103;BME280;61294;65.988;29.172;2023-03-01T08:52:45;97870.00;;;-3.78;87.63
73103;BME280;61294;65.988;29.172;2023-03-01T08:55:11;97867.53;;;-3.98;88.43
73103;BME280;61294;65.988;29.172;2023-03-01T08:57:37;97847.28;;;-4.11;88.95
73103;BME280;61294;65.988;29.172;2023-03-01T09:00:03;97871.72;;;-2.85;86.97
73103;BME280;61294;65.988;29.172;2023-03-01T09:02:28;97844.56;;;-0.48;77.28
73103;BME280;61294;65.988;29.172;2023-03-01T09:04:54;97862.41;;;-0.57;72.56
73103;BME280;61294;65.988;29.172;2023-03-01T09:07:20;97853.28;;;2.03;63.53
73103;BME280;61294;65.988;29.172;2023-03-01T09:09:46;97864.97;;;-0.25;66.50
73103;BME280;61294;65.988;29.172;2023-03-01T09:12:11;97850.09;;;2.21;65.63
73103;BME280;61294;65.988;29.172;2023-03-01T09:14:37;97823.38;;;5.09;53.46
73103;BME280;61294;65.988;29.172;2023-03-01T09:17:04;97811.19;;;9.82;45.22
73103;BME280;61294;65.988;29.172;2023-03-01T09:19:30;97842.72;;;12.53;39.60
73103;BME280;61294;65.988;29.172;2023-03-01T09:21:55;97846.56;;;13.07;36.82
73103;BME280;61294;65.988;29.172;2023-03-01T09:24:24;97814.78;;;12.42;34.88
73103;BME280;61294;65.988;29.172;2023-03-01T09:26:53;97826.41;;;11.58;34.33
73103;BME280;61294;65.988;29.172;2023-03-01T09:29:19;97817.78;;;13.27;32.38
73103;BME280;61294;65.988;29.172;2023-03-01T09:31:44;97829.81;;;11.21;34.04
73103;BME280;61294;65.988;29.172;2023-03-01T09:34:10;97849.75;;;10.91;33.48
73103;BME280;61294;65.988;29.172;2023-03-01T09:36:36;97827.75;;;12.17;31.50
73103;BME280;61294;65.988;29.172;2023-03-01T09:39:03;97840.69;;;12.63;31.33
73103;BME280;61294;65.988;29.172;2023-03-01T09:44:40;97848.41;;;8.78;34.62
73103;BME280;61294;65.988;29.172;2023-03-01T09:47:23;97868.78;;;5.64;39.60
73103;BME280;61294;65.988;29.172;2023-03-01T09:50:14;97870.00;;;1.68;46.83
73103;BME280;61294;65.988;29.172;2023-03-01T09:53:02;97871.03;;;0.10;52.04
73103;BME280;61294;65.988;29.172;2023-03-01T09:58:31;97885.34;;;-1.01;57.75
73103;BME280;61294;65.988;29.172;2023-03-01T10:01:22;97862.09;;;-0.36;56.60
73103;BME280;61294;65.988;29.172;2023-03-01T10:06:36;97878.16;;;3.85;47.96
73103;BME280;61294;65.988;29.172;2023-03-01T10:09:15;97874.88;;;5.53;44.19
73103;BME280;61294;65.988;29.172;2023-03-01T10:11:47;97869.28;;;7.84;41.56
73103;BME280;61294;65.988;29.172;2023-03-01T10:14:33;97861.66;;;10.09;36.52
73103;BME280;61294;65.988;29.172;2023-03-01T10:17:12;97869.03;;;8.18;36.96
73103;BME280;61294;65.988;29.172;2023-03-01T10:19:45;97864.50;;;8.41;38.06
73103;BME280;61294;65.988;29.172;2023-03-01T10:22:24;97888.34;;;8.09;39.87
73103;BME280;61294;65.988;29.172;2023-03-01T10:24:54;97864.47;;;6.83;39.66
73103;BME280;61294;65.988;29.172;2023-03-01T10:27:50;97865.41;;;6.27;41.20
73103;BME280;61294;65.988;29.172;2023-03-01T10:30:37;97881.06;;;4.17;44.02
73103;BME280;61294;65.988;29.172;2023-03-01T10:33:29;97889.72;;;3.28;45.50
73103;BME280;61294;65.988;29.172;2023-03-01T10:35:56;97861.63;;;3.81;45.12
73103;BME280;61294;65.988;29.172;2023-03-01T10:38:22;97850.38;;;5.17;42.72
73103;BME280;61294;65.988;29.172;2023-03-01T10:41:00;97878.47;;;6.47;41.62
73103;BME280;61294;65.988;29.172;2023-03-01T10:46:31;97922.13;;;3.54;43.64
73103;BME280;61294;65.988;29.172;2023-03-01T10:49:18;97918.56;;;2.78;45.86
73103;BME280;61294;65.988;29.172;2023-03-01T10:51:46;97920.22;;;3.40;45.32
73103;BME280;61294;65.988;29.172;2023-03-01T10:54:22;97902.91;;;6.38;42.03
73103;BME280;61294;65.988;29.172;2023-03-01T10:56:58;97905.69;;;9.96;34.23
73103;BME280;61294;65.988;29.172;2023-03-01T10:59:33;97910.41;;;11.79;32.77
73103;BME280;61294;65.988;29.172;2023-03-01T11:02:22;97921.00;;;11.75;32.33
73103;BME280;61294;65.988;29.172;2023-03-01T11:08:06;97921.59;;;10.49;33.61
73103;BME280;61294;65.988;29.172;2023-03-01T11:10:34;97926.09;;;13.32;31.21
73103;BME280;61294;65.988;29.172;2023-03-01T11:13:18;97922.81;;;7.42;33.75
73103;BME280;61294;65.988;29.172;2023-03-01T11:16:07;97942.75;;;3.35;41.63
73103;BME280;61294;65.988;29.172;2023-03-01T11:18:35;97966.66;;;1.55;46.21
73103;BME280;61294;65.988;29.172;2023-03-01T11:21:02;97970.09;;;1.11;48.80
73103;BME280;61294;65.988;29.172;2023-03-01T11:23:30;97970.63;;;0.96;49.59
73103;BME280;61294;65.988;29.172;2023-03-01T11:26:00;97977.25;;;0.83;50.49
73103;BME280;61294;65.988;29.172;2023-03-01T11:28:28;97982.19;;;0.36;51.27
73103;BME280;61294;65.988;29.172;2023-03-01T11:31:07;97928.66;;;0.02;52.19
73103;BME280;61294;65.988;29.172;2023-03-01T11:33:56;97971.28;;;0.51;52.45
73103;BME280;61294;65.988;29.172;2023-03-01T11:36:41;97964.69;;;-0.06;53.49
73103;BME280;61294;65.988;29.172;2023-03-01T11:39:27;97964.69;;;-0.06;55.59
73103;BME280;61294;65.988;29.172;2023-03-01T11:42:35;97942.72;;;-0.54;55.76
73103;BME280;61294;65.988;29.172;2023-03-01T11:45:09;97980.00;;;-0.15;55.41
73103;BME280;61294;65.988;29.172;2023-03-01T11:50:41;97988.81;;;-0.98;56.46
73103;BME280;61294;65.988;29.172;2023-03-01T11:58:46;98011.78;;;-1.09;60.98
73103;BME280;61294;65.988;29.172;2023-03-01T12:04:35;98008.56;;;-1.29;59.69
73103;BME280;61294;65.988;29.172;2023-03-01T12:12:48;98012.31;;;-0.01;59.09
73103;BME280;61294;65.988;29.172;2023-03-01T12:18:29;98019.25;;;1.89;54.72
73103;BME280;61294;65.988;29.172;2023-03-01T12:26:44;97967.84;;;1.28;53.15
73103;BME280;61294;65.988;29.172;2023-03-01T12:29:46;98016.66;;;1.07;54.10
73103;BME280;61294;65.988;29.172;2023-03-01T12:37:47;97963.03;;;-0.36;55.49
73103;BME280;61294;65.988;29.172;2023-03-01T12:43:13;97980.53;;;-0.88;57.85
73103;BME280;61294;65.988;29.172;2023-03-01T12:45:51;98021.78;;;-1.47;59.09
73103;BME280;61294;65.988;29.172;2023-03-01T12:48:29;98006.81;;;-1.83;59.97
73103;BME280;61294;65.988;29.172;2023-03-01T12:51:01;98007.25;;;-1.71;61.00
73103;BME280;61294;65.988;29.172;2023-03-01T12:53:28;98027.13;;;-1.93;61.12
73103;BME280;61294;65.988;29.172;2023-03-01T12:56:07;97969.81;;;-2.58;62.01
73103;BME280;61294;65.988;29.172;2023-03-01T12:58:57;98024.75;;;-2.36;62.71
73103;BME280;61294;65.988;29.172;2023-03-01T13:04:59;98025.28;;;-2.69;63.79
73103;BME280;61294;65.988;29.172;2023-03-01T13:07:40;98010.00;;;-2.87;64.39
73103;BME280;61294;65.988;29.172;2023-03-01T13:17:54;98019.00;;;-3.21;65.68
73103;BME280;61294;65.988;29.172;2023-03-01T13:26:11;97985.13;;;-3.74;67.32
73103;BME280;61294;65.988;29.172;2023-03-01T13:33:50;98011.91;;;-3.69;68.05
73103;BME280;61294;65.988;29.172;2023-03-01T13:44:30;97977.91;;;-4.04;68.20
73103;BME280;61294;65.988;29.172;2023-03-01T13:49:26;98009.22;;;-3.93;68.49
73103;BME280;61294;65.988;29.172;2023-03-01T13:51:53;97987.41;;;-4.23;68.64
73103;BME280;61294;65.988;29.172;2023-03-01T13:54:39;97973.66;;;-4.23;68.59
73103;BME280;61294;65.988;29.172;2023-03-01T13:57:04;98024.13;;;-2.78;65.19
73103;BME280;61294;65.988;29.172;2023-03-01T13:59:30;98024.75;;;-3.06;64.66
73103;BME280;61294;65.988;29.172;2023-03-01T14:01:58;98017.06;;;-3.69;65.72
73103;BME280;61294;65.988;29.172;2023-03-01T14:04:30;98000.03;;;-4.08;67.27
73103;BME280;61294;65.988;29.172;2023-03-01T14:07:20;98015.69;;;-4.03;67.67
73103;BME280;61294;65.988;29.172;2023-03-01T14:09:54;98021.50;;;-4.07;67.57
73103;BME280;61294;65.988;29.172;2023-03-01T14:14:59;98026.59;;;-4.28;68.81
73103;BME280;61294;65.988;29.172;2023-03-01T14:17:44;98052.38;;;-4.27;69.84
73103;BME280;61294;65.988;29.172;2023-03-01T14:20:15;98022.69;;;-4.40;69.41
73103;BME280;61294;65.988;29.172;2023-03-01T14:22:42;98037.09;;;-4.43;69.08
73103;BME280;61294;65.988;29.172;2023-03-01T14:28:02;98033.16;;;-4.55;69.44
73103;BME280;61294;65.988;29.172;2023-03-01T14:30:44;98003.13;;;-4.75;69.65
73103;BME280;61294;65.988;29.172;2023-03-01T14:33:27;98036.94;;;-4.66;69.27
73103;BME280;61294;65.988;29.172;2023-03-01T14:36:00;98033.22;;;-4.73;70.91